Cloverdale, CA

6:05 PM PST on February 06, 2016 (GMT -0800)
KCACLOVE2 | | Change Station
CLOSE
Current Station
Personal Weather Station
Location: Cloverdale, CA
Elevation: 433 ft
Nearby Weather Stations

Elev 433 ft 38.79 °N, 122.99 °W | Updated 5 days ago

Clear
Clear
54 °F
Feels Like 54 °F
N
5
Wind Variable Wind from NNW
Gusts mph

Today
High -- | Low -- °F
--% Chance of Precip.
Yesterday
High -- | Low -- °F
Precip. -- in
Pressure 30.29 in
Visibility 10.0 miles
Clouds Scattered Clouds 15000 ft
Dew Point 45 °F
Humidity 71%
Rainfall in
Snow Depth Not available.
7:13 AM 5:38 PM
Waning Crescent, 3% visible
METAR KSTS 070153Z 15003KT 10SM SCT150 14/06 A3030 RMK AO2 SLP255 T01440061
Pressure 30.29 in
Visibility 10.0 miles
Clouds Scattered Clouds 15000 ft
Dew Point 45 °F
Humidity 71%
Rainfall in
Snow Depth Not available.
7:13 AM 5:38 PM
Waning Crescent, 3% visible
METAR KSTS 070153Z 15003KT 10SM SCT150 14/06 A3030 RMK AO2 SLP255 T01440061

10-Day Weather Forecast

Almanac

Astronomy

Feb. 06, 2016 Rise Set
Actual Time
Civil Twilight
Nautical Twilight
Astronomical Twilight
Moon
Length of Visible Light
Length of Day
Tomorrow will be .
, % of the Moon is Illuminated

Today's Extremes

State Highs State Lows

Community

WunderPhotos

Upload Photos

1,891,132 photos uploaded!

WunderBlog® & News

Nearby

Air Quality

  Air Quality AQ Index Pollutant
Not available.

Snow Depth

Station Depth Elevation

Earthquake Activity

City Distance Mag. Time & Date
Minimum magnitude displayed is 2.5.

Coastal Water Temperatures

Place Temperature

Stations

Nearby Weather Stations

Station Location Temp. Windchill Dew Point Humidity Wind Precip. Elev Updated Type
                   

Watches & Warnings

There are currently no watches in effect.